Time;durP1;ratioP1;P1;durP2;ratioP2;P2;SDS_P1;SDS_P2;PMS_P1;PMS_P2;Temp;Humidity;BMP_temperature;BMP_pressure;BME280_temperature;BME280_humidity;BME280_pressure;Samples;Min_cycle;Max_cycle;Signal;HPM_P1;HPM_P2
2022/08/11 00:01:27;;;;;;;6.85;3.20;;;;;;;18.30;100.00;100610.55;1709429;83;21422;-43
2022/08/11 00:03:58;;;;;;;3.98;3.47;;;;;;;18.33;100.00;100613.02;1690343;83;21265;-43
2022/08/11 00:06:36;;;;;;;5.08;3.50;;;;;;;18.34;100.00;100609.47;1725542;82;20979;-43
2022/08/11 00:09:08;;;;;;;2.92;2.72;;;;;;;18.35;100.00;100613.34;1725401;83;20937;-42
2022/08/11 00:11:53;;;;;;;5.00;3.10;;;;;;;18.37;100.00;100613.25;1725633;83;21429;-43
2022/08/11 00:14:24;;;;;;;9.20;3.20;;;;;;;18.37;100.00;100616.73;1725822;83;20940;-43
2022/08/11 00:17:04;;;;;;;3.22;2.92;;;;;;;18.41;100.00;100621.82;1695099;83;21122;-43
2022/08/11 00:19:42;;;;;;;6.17;3.40;;;;;;;18.43;100.00;100625.21;1725251;82;21473;-43
2022/08/11 00:22:09;;;;;;;6.85;3.60;;;;;;;18.46;100.00;100630.30;1691957;83;20988;-42
2022/08/11 00:24:40;;;;;;;4.22;3.15;;;;;;;18.48;100.00;100620.59;1725452;83;20952;-43
2022/08/11 00:27:07;;;;;;;4.72;3.35;;;;;;;18.49;100.00;100606.56;1736110;82;20948;-43
2022/08/11 00:29:35;;;;;;;3.77;3.42;;;;;;;18.47;100.00;100599.23;1714794;82;21158;-43
2022/08/11 00:32:04;;;;;;;4.83;3.60;;;;;;;18.47;100.00;100591.38;1743526;82;20940;-42
2022/08/11 00:34:35;;;;;;;3.90;3.55;;;;;;;18.46;100.00;100588.38;1714977;82;20961;-43
2022/08/11 00:37:17;;;;;;;5.03;3.55;;;;;;;18.45;100.00;100581.44;1743602;82;20901;-43
2022/08/11 00:39:48;;;;;;;4.97;3.70;;;;;;;18.45;100.00;100595.84;1743456;82;20897;-43
2022/08/11 00:42:27;;;;;;;4.25;3.17;;;;;;;18.42;100.00;100592.91;1739800;82;21144;-43
2022/08/11 00:45:28;;;;;;;7.03;3.40;;;;;;;18.44;100.00;100588.91;1703118;82;21557;-43
2022/08/11 00:48:30;;;;;;;3.87;3.58;;;;;;;18.41;100.00;100580.72;1738014;82;21305;-43
2022/08/11 00:51:10;;;;;;;5.08;3.80;;;;;;;18.39;100.00;100579.95;1747612;80;20990;-43
2022/08/11 00:53:55;;;;;;;6.28;4.55;;;;;;;18.36;100.00;100571.80;1770276;80;20920;-43
2022/08/11 00:57:01;;;;;;;10.43;4.08;;;;;;;18.35;100.00;100576.66;1769490;80;22079;-43
2022/08/11 00:59:53;;;;;;;5.63;4.40;;;;;;;18.34;100.00;100580.65;1772258;80;21433;-43
2022/08/11 01:03:06;;;;;;;11.95;4.22;;;;;;;18.35;100.00;100579.72;1770093;81;20972;-41
2022/08/11 01:06:08;;;;;;;3.92;3.70;;;;;;;18.33;100.00;100583.75;1770064;80;21030;-43
2022/08/11 01:09:13;;;;;;;6.95;4.03;;;;;;;18.34;100.00;100571.48;1770124;81;20908;-43
2022/08/11 01:12:24;;;;;;;3.90;3.60;;;;;;;18.34;100.00;100575.41;1774976;80;21803;-43
2022/08/11 01:15:16;;;;;;;12.30;3.87;;;;;;;18.35;100.00;100587.14;1773827;80;20904;-43
2022/08/11 01:18:37;;;;;;;12.78;4.08;;;;;;;18.35;100.00;100582.34;1769385;80;20889;-43
2022/08/11 01:21:32;;;;;;;7.05;4.20;;;;;;;18.34;100.00;100577.58;1770065;81;20983;-43
2022/08/11 01:24:43;;;;;;;8.48;4.08;;;;;;;18.33;100.00;100577.64;1770085;80;21034;-43
2022/08/11 01:27:46;;;;;;;5.15;3.80;;;;;;;18.31;100.00;100575.56;1769621;80;21714;-42
2022/08/11 01:30:30;;;;;;;8.53;4.20;;;;;;;18.28;100.00;100572.63;1743344;80;20976;-42
2022/08/11 01:33:18;;;;;;;4.67;4.17;;;;;;;18.24;100.00;100567.15;1758137;80;21483;-42
2022/08/11 01:36:12;;;;;;;5.67;4.50;;;;;;;18.22;100.00;100562.45;1771576;80;20882;-42
2022/08/11 01:39:22;;;;;;;5.53;4.40;;;;;;;18.19;100.00;100566.53;1773558;80;21087;-42
2022/08/11 01:45:49;;;;;;;;;;;;;;;18.12;100.00;100569.07;1777554;80;21486;-42
2022/08/11 01:48:55;;;;;;;4.83;4.42;;;;;;;18.07;100.00;100570.14;1773827;80;20123;-42
2022/08/11 01:52:13;;;;;;;7.15;4.08;;;;;;;18.05;100.00;100576.37;1753052;80;21018;-42
2022/08/11 01:55:12;;;;;;;4.05;3.75;;;;;;;18.00;100.00;100585.71;1774950;80;21450;-42
2022/08/11 01:58:09;;;;;;;14.15;4.20;;;;;;;17.97;100.00;100593.72;1774520;80;21092;-42
2022/08/11 02:00:54;;;;;;;6.42;4.50;;;;;;;17.94;100.00;100594.73;1774156;80;20994;-42
2022/08/11 02:04:00;;;;;;;6.60;4.55;;;;;;;17.92;100.00;100592.61;1754225;80;20916;-42
2022/08/11 02:07:02;;;;;;;5.55;4.90;;;;;;;17.90;100.00;100591.01;1774991;80;21011;-42
2022/08/11 02:13:13;;;;;;;13.48;6.08;;;;;;;17.87;100.00;100588.53;1774780;80;20972;-42
2022/08/11 02:15:50;;;;;;;7.40;4.62;;;;;;;17.85;100.00;100595.63;1774453;80;20964;-42
2022/08/11 02:23:38;;;;;;;7.97;4.20;;;;;;;17.81;100.00;100591.84;1774967;80;20976;-42
2022/08/11 02:23:55;;;;;;;5.42;4.67;;;;;;;17.78;100.00;100589.34;1774965;80;21011;-42
2022/08/11 02:26:32;;;;;;;5.10;4.60;;;;;;;17.76;100.00;100591.17;1774513;80;21210;-42
2022/08/11 02:29:09;;;;;;;9.48;4.65;;;;;;;17.73;100.00;100595.25;1753063;80;20937;-42
2022/08/11 02:35:19;;;;;;;11.45;4.95;;;;;;;17.71;100.00;100583.17;1769946;81;20944;-42
2022/08/11 02:37:55;;;;;;;8.28;4.72;;;;;;;17.69;100.00;100586.33;1769981;81;20951;-42
2022/08/11 02:40:35;;;;;;;5.12;4.72;;;;;;;17.66;100.00;100592.06;1769432;80;21070;-42
2022/08/11 02:43:33;;;;;;;9.23;4.65;;;;;;;17.64;100.00;100600.45;1769653;80;20959;-42
2022/08/11 02:46:20;;;;;;;12.00;4.53;;;;;;;17.62;100.00;100600.14;1773337;80;21395;-42
2022/08/11 02:52:25;;;;;;;5.05;4.42;;;;;;;17.58;100.00;100599.42;1775230;80;21522;-43
2022/08/11 02:55:15;;;;;;;4.70;4.30;;;;;;;17.57;100.00;100603.44;1774950;80;21235;-42
2022/08/11 02:57:54;;;;;;;4.60;4.20;;;;;;;17.58;100.00;100601.20;1774739;80;20980;-43
2022/08/11 03:00:21;;;;;;;6.60;4.50;;;;;;;17.57;100.00;100603.44;1774820;80;20928;-42
2022/08/11 03:03:26;;;;;;;10.58;4.30;;;;;;;17.57;100.00;100606.89;1770654;80;20956;-42
2022/08/11 03:06:10;;;;;;;4.62;4.20;;;;;;;17.58;100.00;100601.20;1769720;80;21462;-43
2022/08/11 03:09:01;;;;;;;13.15;4.90;;;;;;;17.59;100.00;100607.66;1770164;81;21458;-43
2022/08/11 03:18:03;;;;;;;7.62;4.40;;;;;;;17.62;100.00;100606.69;1710158;80;21616;-42
2022/08/11 03:20:44;;;;;;;21.00;5.58;;;;;;;17.65;100.00;100618.32;1751024;81;20964;-41
2022/08/11 03:23:42;;;;;;;5.05;4.65;;;;;;;17.64;100.00;100608.30;1708277;82;23149;-41
2022/08/11 03:26:29;;;;;;;7.28;5.17;;;;;;;17.66;100.00;100613.48;1763427;80;20853;-42
2022/08/11 03:29:32;;;;;;;6.55;5.15;;;;;;;17.69;100.00;100613.33;1770072;81;20912;-41
2022/08/11 03:32:20;;;;;;;6.62;4.50;;;;;;;17.68;100.00;100611.63;1769924;81;21470;-43
2022/08/11 03:34:47;;;;;;;7.17;4.10;;;;;;;17.70;100.00;100617.64;1773582;80;20984;-43
2022/08/11 03:37:50;;;;;;;6.62;4.15;;;;;;;17.70;100.00;100616.34;1774925;80;21163;-43
2022/08/11 03:43:57;;;;;;;7.08;4.87;;;;;;;17.71;100.00;100618.03;1774780;80;20964;-42
2022/08/11 03:46:53;;;;;;;5.70;4.95;;;;;;;17.73;100.00;100616.19;1774350;80;20940;-42
2022/08/11 03:49:54;;;;;;;6.12;4.40;;;;;;;17.73;100.00;100629.28;1775072;80;20936;-42
2022/08/11 03:52:42;;;;;;;7.53;4.87;;;;;;;17.75;100.00;100632.67;1752559;80;21225;-42
2022/08/11 03:58:31;;;;;;;12.93;4.90;;;;;;;17.89;100.00;100629.89;1798192;79;22358;-41
2022/08/11 04:01:36;;;;;;;7.42;5.12;;;;;;;17.90;100.00;100632.42;1757968;80;21027;-42
2022/08/11 04:04:34;;;;;;;5.08;4.78;;;;;;;17.99;100.00;100636.39;1758103;81;21117;-44
2022/08/11 04:07:36;;;;;;;8.08;5.60;;;;;;;18.07;100.00;100632.14;1769790;80;20943;-42
2022/08/11 04:10:20;;;;;;;5.90;4.80;;;;;;;18.14;100.00;100627.47;1783794;80;20935;-43
2022/08/11 04:12:59;;;;;;;9.53;5.25;;;;;;;18.22;100.00;100637.11;1719910;80;20912;-43
2022/08/11 04:16:20;;;;;;;7.25;4.45;;;;;;;18.29;100.00;100650.30;1784296;80;21492;-43
2022/08/11 04:19:20;;;;;;;6.35;4.87;;;;;;;18.38;100.00;100655.56;1747310;82;21395;-42
2022/08/11 04:22:22;;;;;;;10.82;5.12;;;;;;;18.46;100.00;100644.27;1784088;80;21410;-42
2022/08/11 04:25:27;;;;;;;6.42;4.60;;;;;;;18.53;100.00;100651.34;1784016;80;20987;-42
2022/08/11 04:28:14;;;;;;;5.42;4.65;;;;;;;18.55;100.00;100643.42;1762286;80;21034;-42
2022/08/11 04:30:59;;;;;;;7.30;4.35;;;;;;;18.57;100.00;100648.13;1739484;81;21011;-41
2022/08/11 04:33:50;;;;;;;9.05;4.40;;;;;;;18.62;100.00;100652.67;1699021;84;21110;-42
2022/08/11 04:37:31;;;;;;;12.58;4.20;;;;;;;18.66;100.00;100644.59;1687906;84;20936;-43
2022/08/11 04:39:21;;;;;;;13.18;4.37;;;;;;;18.75;100.00;100648.98;1702551;81;20939;-43
2022/08/11 04:45:33;;;;;;;5.62;3.80;;;;;;;18.89;100.00;100634.73;1739499;81;20947;-42
2022/08/11 05:01:42;;;;;;;7.50;3.60;;;;;;;20.07;100.00;100620.69;1735352;82;20974;-42
2022/08/11 05:08:02;;;;;;;3.90;3.60;;;;;;;20.59;100.00;100625.26;1736647;82;20897;-42
2022/08/11 05:11:11;;;;;;;9.60;3.70;;;;;;;20.75;100.00;100623.89;1739451;82;20909;-42
2022/08/11 05:36:53;;;;;;;5.22;3.35;;;;;;;22.32;100.00;100649.89;1651209;86;20978;-43
2022/08/11 05:56:19;;;;;;;4.45;3.30;;;;;;;22.19;100.00;100650.33;1714718;82;20919;-42
2022/08/11 05:58:53;;;;;;;7.12;3.87;;;;;;;22.16;100.00;100638.19;1712919;82;20968;-42
2022/08/11 06:01:29;;;;;;;6.17;3.60;;;;;;;22.07;100.00;100623.80;1709500;82;21128;-42
2022/08/11 06:04:15;;;;;;;6.00;4.05;;;;;;;22.06;100.00;100619.48;1736473;82;21549;-42
2022/08/11 06:07:00;;;;;;;7.72;3.87;;;;;;;22.06;100.00;100627.88;1729681;82;20966;-42
2022/08/11 06:09:37;;;;;;;4.08;3.75;;;;;;;22.10;100.00;100628.91;1713951;82;21066;-42
2022/08/11 06:12:16;;;;;;;8.43;3.70;;;;;;;22.10;100.00;100628.91;1632941;85;21011;-42
2022/08/11 06:14:44;;;;;;;9.60;4.20;;;;;;;22.19;100.00;100626.12;1698151;83;21264;-42
2022/08/11 06:17:12;;;;;;;4.10;3.80;;;;;;;22.28;100.00;100611.98;1680946;83;20964;-41
2022/08/11 06:19:41;;;;;;;8.13;4.17;;;;;;;22.37;100.00;100610.91;1647680;85;21020;-42
2022/08/11 06:22:10;;;;;;;6.40;3.90;;;;;;;22.47;100.00;100615.60;1680887;83;21027;-42
2022/08/11 06:24:41;;;;;;;4.28;3.87;;;;;;;22.58;100.00;100606.48;1648798;85;21020;-42
2022/08/11 06:27:08;;;;;;;5.72;4.35;;;;;;;22.64;99.15;100602.14;1654853;85;21506;-42
2022/08/11 06:29:40;;;;;;;10.18;4.47;;;;;;;22.65;98.92;100606.93;1712498;82;21335;-43
2022/08/11 06:32:05;;;;;;;14.30;4.53;;;;;;;22.63;99.39;100604.87;1673045;85;21053;-42
2022/08/11 06:34:59;;;;;;;9.90;4.90;;;;;;;22.62;99.37;100608.00;1713541;82;21000;-41
2022/08/11 06:38:06;;;;;;;3.80;3.50;;;;;;;22.58;98.87;100602.53;1705845;82;21079;-43
2022/08/11 06:40:38;;;;;;;5.72;3.92;;;;;;;22.56;99.63;100619.42;1669339;85;21438;-42
2022/08/11 06:43:24;;;;;;;12.68;4.45;;;;;;;22.60;99.36;100634.09;1684354;83;20920;-43
2022/08/11 06:46:03;;;;;;;7.42;4.33;;;;;;;22.61;99.26;100633.14;1670766;85;20952;-41
2022/08/11 06:48:32;;;;;;;7.95;4.33;;;;;;;22.62;98.97;100630.41;1657380;85;20917;-41
2022/08/11 06:51:11;;;;;;;6.45;4.17;;;;;;;22.65;98.62;100632.84;1675498;85;21011;-41
2022/08/11 06:53:52;;;;;;;4.75;3.92;;;;;;;22.68;98.28;100624.72;1717627;82;21161;-43
2022/08/11 07:02:25;;;;;;;4.25;3.90;;;;;;;22.91;99.76;100618.38;1711268;82;20948;-43
2022/08/11 07:05:08;;;;;;;8.08;4.65;;;;;;;23.04;99.49;100612.23;1714775;82;21017;-42
2022/08/11 07:15:40;;;;;;;7.53;4.65;;;;;;;23.32;97.73;100603.29;1717319;82;22068;-43
2022/08/11 07:17:11;;;;;;;7.47;3.75;;;;;;;23.56;96.68;100597.69;1708378;84;21412;-42
2022/08/11 07:31:02;;;;;;;5.67;5.03;;;;;;;24.30;95.28;100596.81;1708441;84;20932;-42
2022/08/11 07:33:33;;;;;;;8.38;5.10;;;;;;;24.55;92.40;100601.09;1708543;84;21493;-42
2022/08/11 07:36:01;;;;;;;9.15;5.10;;;;;;;24.75;88.33;100603.58;1705949;83;22181;-41
2022/08/11 07:38:50;;;;;;;9.08;4.60;;;;;;;24.90;87.47;100601.58;1708416;84;20948;-42
2022/08/11 07:41:18;;;;;;;10.68;4.75;;;;;;;25.04;87.26;100602.30;1708354;84;21502;-42
2022/08/11 07:43:49;;;;;;;14.47;5.78;;;;;;;25.20;84.02;100600.63;1708362;84;21042;-42
2022/08/11 07:54:35;;;;;;;10.82;5.60;;;;;;;25.85;70.40;100594.20;1708555;84;20979;-42
2022/08/11 08:19:17;;;;;;;11.90;6.00;;;;;;;27.14;66.99;100616.74;1708660;84;20912;-41
2022/08/11 08:21:44;;;;;;;16.12;6.45;;;;;;;27.38;65.18;100617.77;1708410;84;20849;-41
2022/08/11 08:24:11;;;;;;;13.62;6.35;;;;;;;27.47;62.86;100613.47;1708239;84;21561;-42
2022/08/11 08:32:18;;;;;;;9.95;5.60;;;;;;;27.48;62.97;100617.80;1708269;84;20877;-41
2022/08/11 08:34:45;;;;;;;10.63;6.47;;;;;;;27.54;64.83;100616.46;1686629;84;20908;-41
2022/08/11 08:37:13;;;;;;;12.23;6.22;;;;;;;27.71;63.41;100612.77;1708289;84;20869;-43
2022/08/11 08:39:40;;;;;;;12.85;6.15;;;;;;;27.91;62.28;100612.31;1708435;84;20986;-43
2022/08/11 08:42:10;;;;;;;10.45;5.83;;;;;;;27.97;61.70;100603.30;1708492;84;21228;-43
2022/08/11 08:44:45;;;;;;;9.98;6.28;;;;;;;27.90;63.05;100611.96;1708128;84;20905;-44
2022/08/11 08:47:14;;;;;;;14.35;6.50;;;;;;;27.91;62.93;100612.31;1708516;84;20964;-42
2022/08/11 08:49:49;;;;;;;12.13;6.70;;;;;;;27.96;63.15;100611.43;1708540;84;20976;-41
2022/08/11 08:52:22;;;;;;;12.68;6.83;;;;;;;28.15;64.25;100621.71;1708881;84;20932;-42
2022/08/11 08:54:55;;;;;;;11.50;7.15;;;;;;;28.27;61.71;100619.31;1708893;84;21255;-42
2022/08/11 08:57:22;;;;;;;12.80;6.83;;;;;;;28.30;62.05;100619.03;1708498;84;20992;-43
2022/08/11 08:59:50;;;;;;;14.50;7.53;;;;;;;28.37;62.61;100610.82;1715823;83;21050;-42
2022/08/11 09:02:19;;;;;;;10.40;7.05;;;;;;;28.63;63.67;100608.89;1716147;83;20940;-42
2022/08/11 09:04:46;;;;;;;14.50;7.90;;;;;;;28.92;60.77;100608.02;1716407;83;21022;-42
2022/08/11 09:07:16;;;;;;;12.80;7.42;;;;;;;29.01;58.72;100608.14;1716206;83;21245;-43
2022/08/11 09:09:46;;;;;;;15.45;7.60;;;;;;;28.98;58.85;100618.59;1716134;83;21537;-43
2022/08/11 09:12:13;;;;;;;15.43;7.87;;;;;;;29.10;60.40;100615.25;1716182;83;20968;-43
2022/08/11 09:15:02;;;;;;;9.00;7.47;;;;;;;29.38;57.51;100612.61;1716271;82;20940;-43
2022/08/11 09:17:45;;;;;;;14.63;8.48;;;;;;;29.61;58.45;100612.23;1716244;83;20912;-42
2022/08/11 09:20:22;;;;;;;14.87;7.87;;;;;;;29.69;56.27;100611.02;1716566;83;21082;-43
2022/08/11 09:28:21;;;;;;;11.97;8.53;;;;;;;30.27;56.14;100605.40;1716467;82;21556;-44
2022/08/11 09:30:53;;;;;;;11.80;7.42;;;;;;;30.53;53.67;100614.28;1716310;83;20930;-41
2022/08/11 09:33:22;;;;;;;14.45;11.10;;;;;;;30.58;54.96;100613.82;1716071;83;21014;-42
2022/08/11 09:35:50;;;;;;;17.05;8.53;;;;;;;30.68;55.94;100618.59;1687670;83;20986;-41
2022/08/11 09:41:07;;;;;;;14.58;8.95;;;;;;;30.99;52.58;100619.13;1716312;83;20908;-42
2022/08/11 09:46:27;;;;;;;13.10;9.13;;;;;;;31.01;50.12;100623.30;1716289;83;21256;-41
2022/08/11 09:48:57;;;;;;;14.75;9.53;;;;;;;30.70;52.20;100625.63;1716133;83;20900;-41
2022/08/11 09:51:25;;;;;;;18.80;10.10;;;;;;;30.66;51.38;100629.10;1716148;83;20860;-41
2022/08/11 09:53:52;;;;;;;17.75;10.05;;;;;;;30.79;51.58;100629.51;1716315;83;21414;-42
2022/08/11 09:59:08;;;;;;;13.00;9.68;;;;;;;30.84;51.82;100632.23;1712219;83;21225;-42
2022/08/11 10:01:47;;;;;;;19.62;10.23;;;;;;;30.71;51.35;100633.98;1708564;84;20933;-41
2022/08/11 10:04:33;;;;;;;13.75;10.03;;;;;;;30.51;52.90;100634.96;1708401;83;20924;-41
2022/08/11 10:07:01;;;;;;;18.00;10.58;;;;;;;30.30;51.47;100629.96;1674309;85;20969;-41
2022/08/11 10:09:50;;;;;;;20.60;11.18;;;;;;;30.13;51.29;100629.47;1674083;85;21443;-42
2022/08/11 10:12:23;;;;;;;23.85;10.70;;;;;;;29.97;51.72;100632.30;1649956;87;21167;-42
2022/08/11 10:20:41;;;;;;;20.90;10.58;;;;;;;29.01;54.60;100641.45;1708461;84;21072;-42
2022/08/11 10:28:39;;;;;;;21.45;10.80;;;;;;;28.37;56.65;100647.25;1708363;82;20901;-43
2022/08/11 10:34:02;;;;;;;15.98;9.60;;;;;;;28.09;58.70;100645.23;1708463;84;20995;-43
2022/08/11 10:36:47;;;;;;;21.80;10.65;;;;;;;27.93;58.70;100657.75;1708509;84;20940;-43
2022/08/11 10:39:15;;;;;;;23.20;10.48;;;;;;;27.78;59.10;100651.13;1707211;83;21109;-43
2022/08/11 10:44:45;;;;;;;21.17;10.63;;;;;;;27.45;61.23;100660.59;1674232;85;21578;-43
2022/08/11 11:01:04;;;;;;;25.43;14.43;;;;;;;27.58;61.90;100664.38;1716032;83;20971;-43
2022/08/11 11:03:34;;;;;;;20.95;11.38;;;;;;;27.71;62.83;100660.63;1716150;83;21588;-43
2022/08/11 11:06:42;;;;;;;16.60;9.50;;;;;;;27.97;62.32;100659.15;1716098;83;21912;-43
2022/08/11 11:09:28;;;;;;;16.97;10.78;;;;;;;28.20;61.75;100652.28;1715718;83;21391;-44
2022/08/11 11:18:06;;;;;;;16.48;9.78;;;;;;;28.71;60.50;100658.77;1716198;83;21028;-43
2022/08/11 11:20:44;;;;;;;14.35;9.25;;;;;;;28.63;60.95;100667.47;1715913;83;21377;-44
2022/08/11 11:23:15;;;;;;;18.02;9.30;;;;;;;28.63;61.63;100662.14;1716174;83;20888;-44
2022/08/11 11:26:09;;;;;;;19.85;8.75;;;;;;;28.74;62.53;100659.00;1716032;83;20944;-43
2022/08/11 11:28:53;;;;;;;15.43;8.48;;;;;;;29.10;62.45;100657.41;1716061;82;21075;-43
2022/08/11 11:31:44;;;;;;;11.93;8.80;;;;;;;29.67;59.90;100656.96;1715868;83;20972;-43
2022/08/11 11:34:31;;;;;;;23.77;7.70;;;;;;;30.09;57.66;100651.12;1716011;83;21079;-43
2022/08/11 11:36:59;;;;;;;17.92;8.20;;;;;;;30.24;57.00;100652.75;1713841;83;20912;-43
2022/08/11 11:39:29;;;;;;;15.65;7.95;;;;;;;30.57;56.66;100652.20;1716142;83;20932;-44
2022/08/11 11:42:03;;;;;;;19.32;8.30;;;;;;;30.85;57.06;100652.09;1716433;83;20944;-43
2022/08/11 11:44:30;;;;;;;12.65;7.97;;;;;;;31.04;56.08;100647.54;1715996;83;21480;-44
2022/08/11 11:46:57;;;;;;;16.07;8.18;;;;;;;31.02;56.50;100640.18;1716090;83;21222;-43
2022/08/11 11:49:31;;;;;;;17.48;7.72;;;;;;;31.08;55.56;100630.19;1715983;83;21481;-43
2022/08/11 11:51:58;;;;;;;14.95;9.05;;;;;;;31.22;56.22;100635.47;1716352;83;21397;-43
2022/08/11 11:54:28;;;;;;;14.70;8.40;;;;;;;31.29;53.44;100633.00;1716016;83;20936;-43
2022/08/11 11:56:56;;;;;;;16.30;8.30;;;;;;;31.00;54.17;100637.66;1715872;83;20955;-43
2022/08/11 12:02:08;;;;;;;12.60;8.18;;;;;;;30.51;57.96;100632.80;1667945;83;20888;-43
2022/08/11 12:04:36;;;;;;;13.38;8.18;;;;;;;30.79;56.33;100638.03;1715760;83;21006;-44
2022/08/11 12:09:49;;;;;;;18.70;9.75;;;;;;;30.89;55.10;100628.59;1716123;83;21421;-42
2022/08/11 12:15:02;;;;;;;17.35;9.80;;;;;;;30.82;54.22;100628.37;1716023;83;21019;-43
2022/08/11 12:17:30;;;;;;;14.15;9.35;;;;;;;30.59;53.97;100637.37;1716043;83;21000;-43
2022/08/11 12:19:56;;;;;;;18.45;9.73;;;;;;;30.47;55.33;100641.61;1716346;83;20912;-43
2022/08/11 12:27:44;;;;;;;14.00;9.53;;;;;;;30.27;54.07;100646.28;1692412;83;20889;-43
2022/08/11 12:30:12;;;;;;;15.20;9.53;;;;;;;30.09;54.86;100637.78;1716407;83;20936;-44
2022/08/11 12:32:39;;;;;;;20.57;9.28;;;;;;;29.90;55.18;100648.55;1688114;83;21123;-43
2022/08/11 12:35:07;;;;;;;13.22;9.28;;;;;;;29.79;55.55;100641.59;1716169;83;20987;-43
2022/08/11 12:37:42;;;;;;;12.18;8.50;;;;;;;29.66;56.51;100645.95;1716522;83;21671;-43
2022/08/11 12:45:47;;;;;;;12.50;9.60;;;;;;;29.75;56.61;100629.08;1716273;83;20991;-43
2022/08/11 12:54:02;;;;;;;17.20;9.45;;;;;;;29.27;57.64;100636.80;1716174;83;20940;-43
2022/08/11 13:05:04;;;;;;;16.42;9.93;;;;;;;28.56;58.47;100630.42;1658679;85;21300;-43
2022/08/11 13:07:32;;;;;;;11.90;10.28;;;;;;;28.45;59.49;100635.91;1708355;83;20913;-43
2022/08/11 13:10:03;;;;;;;14.60;10.72;;;;;;;28.42;59.44;100640.16;1708513;84;21217;-43
2022/08/11 13:12:46;;;;;;;20.77;10.82;;;;;;;28.33;59.59;100636.04;1674228;85;21004;-43
2022/08/11 13:15:22;;;;;;;17.42;11.18;;;;;;;28.35;58.96;100639.40;1649987;87;21005;-43
2022/08/11 13:17:51;;;;;;;22.70;11.18;;;;;;;28.31;60.44;100639.84;1708693;84;21261;-42
2022/08/11 13:20:19;;;;;;;19.85;11.20;;;;;;;28.29;59.77;100637.78;1708495;84;20896;-42
2022/08/11 13:22:50;;;;;;;13.78;10.32;;;;;;;28.31;60.34;100641.17;1708554;84;21019;-43
2022/08/11 13:25:18;;;;;;;13.93;10.43;;;;;;;28.38;59.46;100635.62;1708632;84;20956;-43
2022/08/11 13:27:46;;;;;;;17.12;10.95;;;;;;;28.42;59.46;100630.84;1708746;82;21015;-43
2022/08/11 13:32:59;;;;;;;23.98;10.93;;;;;;;28.40;58.56;100632.33;1708808;84;21541;-43
2022/08/11 13:35:28;;;;;;;27.50;11.48;;;;;;;28.47;57.24;100637.94;1708629;84;20933;-43
2022/08/11 13:37:55;;;;;;;17.42;9.83;;;;;;;28.49;57.86;100634.64;1708736;84;21481;-43
2022/08/11 13:40:22;;;;;;;19.62;10.90;;;;;;;28.52;57.96;100641.02;1708636;84;20940;-43
2022/08/11 13:42:49;;;;;;;12.07;10.18;;;;;;;28.73;57.33;100640.01;1674030;85;21036;-42
2022/08/11 13:45:16;;;;;;;17.45;10.75;;;;;;;28.84;56.62;100639.86;1662554;86;20958;-42
2022/08/11 13:47:43;;;;;;;17.48;10.95;;;;;;;28.82;56.78;100637.84;1708611;83;20984;-43
2022/08/11 13:50:12;;;;;;;14.85;10.45;;;;;;;28.91;56.34;100642.29;1708465;84;21455;-43
2022/08/11 13:52:39;;;;;;;13.80;11.08;;;;;;;29.09;55.85;100634.89;1708390;84;20979;-43
2022/08/11 13:55:09;;;;;;;12.30;10.68;;;;;;;29.22;55.79;100631.89;1708514;84;21234;-43
2022/08/11 13:57:37;;;;;;;20.40;11.08;;;;;;;29.36;55.85;100634.57;1708278;83;21100;-43
2022/08/11 14:00:10;;;;;;;19.85;10.82;;;;;;;29.58;54.84;100631.20;1708563;83;20935;-43
2022/08/11 14:02:42;;;;;;;13.22;10.85;;;;;;;29.82;53.70;100629.32;1708473;83;21592;-43
2022/08/11 14:05:14;;;;;;;18.82;10.48;;;;;;;29.92;52.31;100622.08;1674227;85;20957;-42
2022/08/11 14:07:51;;;;;;;22.50;10.63;;;;;;;29.83;51.94;100629.66;1649425;86;21248;-43
2022/08/11 14:10:23;;;;;;;18.92;10.50;;;;;;;29.81;52.11;100622.31;1708865;84;20872;-43
2022/08/11 14:15:47;;;;;;;16.82;10.63;;;;;;;29.97;51.71;100607.78;1708626;84;20912;-42
2022/08/11 14:18:21;;;;;;;15.80;10.23;;;;;;;30.03;51.12;100607.71;1674125;85;21453;-43
2022/08/11 14:23:41;;;;;;;15.65;10.13;;;;;;;30.13;53.21;100599.63;1649898;87;21080;-43
2022/08/11 14:26:25;;;;;;;16.75;10.72;;;;;;;30.18;52.47;100590.66;1708584;84;20931;-43
2022/08/11 14:29:01;;;;;;;16.35;10.10;;;;;;;30.02;52.77;100597.17;1708602;82;20865;-43
2022/08/11 14:31:29;;;;;;;16.87;10.43;;;;;;;29.96;51.37;100579.43;1708576;84;21394;-43
2022/08/11 14:33:59;;;;;;;18.27;10.25;;;;;;;29.90;51.47;100581.86;1708603;84;21151;-43
2022/08/11 14:36:26;;;;;;;17.65;9.63;;;;;;;29.82;52.01;100581.31;1708413;83;20932;-43
2022/08/11 14:38:53;;;;;;;24.12;10.03;;;;;;;29.88;52.09;100586.52;1708478;84;20921;-43
2022/08/11 14:47:05;;;;;;;26.05;9.38;;;;;;;30.27;51.27;100566.22;1708641;84;21911;-44
2022/08/11 14:49:35;;;;;;;21.10;11.10;;;;;;;30.29;51.38;100578.91;1708494;82;21553;-43
2022/08/11 14:52:09;;;;;;;15.03;9.80;;;;;;;30.29;52.11;100569.56;1708764;84;21462;-43
2022/08/11 14:57:21;;;;;;;14.15;9.18;;;;;;;30.46;52.04;100573.70;1708661;84;21521;-44
2022/08/11 14:59:49;;;;;;;19.02;9.80;;;;;;;30.43;52.33;100571.31;1709785;83;21830;-43
2022/08/11 15:05:05;;;;;;;20.05;10.15;;;;;;;30.24;53.10;100577.20;1694935;83;21000;-43
2022/08/11 15:07:32;;;;;;;24.63;10.25;;;;;;;30.24;54.09;100565.20;1722115;83;21447;-43
2022/08/11 15:10:07;;;;;;;12.78;9.18;;;;;;;30.46;54.74;100563.84;1722365;83;20948;-43
2022/08/11 15:12:35;;;;;;;14.47;8.88;;;;;;;30.67;54.48;100566.17;1722106;83;21596;-43
2022/08/11 15:17:59;;;;;;;19.02;9.00;;;;;;;30.73;54.69;100569.23;1722270;83;21069;-43
2022/08/11 15:26:12;;;;;;;17.32;9.33;;;;;;;29.99;57.08;100579.63;1722448;83;22276;-43
2022/08/11 15:37:28;;;;;;;14.78;8.90;;;;;;;29.10;61.14;100581.95;1672120;85;20084;-44
2022/08/11 15:46:00;;;;;;;24.10;9.88;;;;;;;28.45;63.07;100582.69;1722390;83;20909;-43
2022/08/11 15:48:36;;;;;;;19.07;9.95;;;;;;;28.16;63.94;100579.05;1722254;82;21501;-43
2022/08/11 15:51:30;;;;;;;15.40;10.15;;;;;;;27.93;64.72;100582.46;1722403;83;21015;-44
2022/08/11 15:53:58;;;;;;;15.53;10.88;;;;;;;27.71;65.35;100568.91;1722209;83;21226;-43
2022/08/11 15:56:29;;;;;;;20.00;10.65;;;;;;;27.47;66.31;100568.77;1722096;83;21050;-43
2022/08/11 16:04:29;;;;;;;17.62;10.68;;;;;;;26.94;69.18;100575.98;1727332;82;20917;-43
2022/08/11 16:07:11;;;;;;;11.45;9.65;;;;;;;26.78;70.56;100571.12;1727412;82;21297;-43
2022/08/11 16:09:50;;;;;;;15.28;9.63;;;;;;;26.65;70.84;100581.47;1727096;82;20928;-43
2022/08/11 16:12:21;;;;;;;17.50;9.98;;;;;;;26.54;71.36;100577.55;1727726;81;20922;-43
2022/08/11 16:16:37;;;;;;;14.87;10.10;;;;;;;26.44;72.39;100580.63;1790093;79;22521;-42
2022/08/11 16:19:07;;;;;;;14.85;10.25;;;;;;;26.30;73.07;100581.28;1751191;80;21011;-42
2022/08/11 16:21:34;;;;;;;13.80;9.68;;;;;;;26.22;73.43;100585.07;1746377;81;21135;-41
2022/08/11 16:24:05;;;;;;;20.37;10.82;;;;;;;26.17;73.86;100588.09;1745257;81;20967;-42
2022/08/11 16:26:32;;;;;;;17.32;9.68;;;;;;;26.13;74.15;100581.33;1757774;81;21038;-42
2022/08/11 16:29:00;;;;;;;18.55;9.83;;;;;;;26.08;74.61;100586.18;1716903;83;20983;-42
2022/08/11 16:31:27;;;;;;;14.50;9.75;;;;;;;26.04;75.34;100582.11;1699151;84;21054;-42
2022/08/11 16:33:54;;;;;;;29.57;9.80;;;;;;;25.99;75.72;100583.80;1700559;83;21095;-42
2022/08/11 16:39:09;;;;;;;16.45;9.98;;;;;;;25.83;76.76;100582.89;1698673;83;21390;-43
2022/08/11 16:47:15;;;;;;;20.08;9.40;;;;;;;25.52;79.05;100580.07;1719637;82;21311;-43
2022/08/11 16:49:45;;;;;;;17.35;9.68;;;;;;;25.36;80.48;100577.73;1727995;82;20912;-43
2022/08/11 16:52:12;;;;;;;14.58;9.33;;;;;;;25.18;81.37;100579.58;1727868;82;20892;-43
2022/08/11 16:54:40;;;;;;;11.40;9.50;;;;;;;25.06;82.14;100576.55;1727821;82;21012;-92
2022/08/11 17:00:06;;;;;;;14.37;10.27;;;;;;;24.87;83.88;100589.05;1698825;84;21167;-41
2022/08/11 17:13:53;;;;;;;13.62;9.15;;;;;;;24.36;87.80;100601.15;1698863;83;21568;-42